sensor_id;sensor_type;location;lat;lon;timestamp;pressure;altitude;pressure_sealevel;temperature;humidity
8523;BME280;4299;42.202;24.736;2023-03-25T00:02:24;99403.97;;;6.28;nan
8523;BME280;4299;42.202;24.736;2023-03-25T00:04:54;99402.28;;;6.27;nan
8523;BME280;4299;42.202;24.736;2023-03-25T00:07:22;99406.06;;;6.20;nan
8523;BME280;4299;42.202;24.736;2023-03-25T00:09:49;99403.53;;;6.17;nan
8523;BME280;4299;42.202;24.736;2023-03-25T00:12:16;99399.06;;;6.19;nan
8523;BME280;4299;42.202;24.736;2023-03-25T00:14:43;99400.19;;;6.13;nan
8523;BME280;4299;42.202;24.736;2023-03-25T00:17:18;99400.81;;;6.20;nan
8523;BME280;4299;42.202;24.736;2023-03-25T00:19:45;99400.41;;;6.29;nan
8523;BME280;4299;42.202;24.736;2023-03-25T00:22:15;99388.72;;;6.36;nan
8523;BME280;4299;42.202;24.736;2023-03-25T00:24:43;99380.19;;;6.51;nan
8523;BME280;4299;42.202;24.736;2023-03-25T00:27:10;99386.81;;;6.61;nan
8523;BME280;4299;42.202;24.736;2023-03-25T00:29:38;99381.66;;;6.58;nan
8523;BME280;4299;42.202;24.736;2023-03-25T00:32:05;99386.06;;;6.58;nan
8523;BME280;4299;42.202;24.736;2023-03-25T00:34:32;99382.59;;;6.57;nan
8523;BME280;4299;42.202;24.736;2023-03-25T00:36:59;99380.19;;;6.51;nan
8523;BME280;4299;42.202;24.736;2023-03-25T00:39:26;99381.91;;;6.52;nan
8523;BME280;4299;42.202;24.736;2023-03-25T00:41:54;99372.28;;;6.51;nan
8523;BME280;4299;42.202;24.736;2023-03-25T00:44:21;99366.09;;;6.52;nan
8523;BME280;4299;42.202;24.736;2023-03-25T00:46:48;99369.81;;;6.48;nan
8523;BME280;4299;42.202;24.736;2023-03-25T00:49:15;99367.16;;;6.48;nan
8523;BME280;4299;42.202;24.736;2023-03-25T00:51:42;99368.28;;;6.43;nan
8523;BME280;4299;42.202;24.736;2023-03-25T00:54:09;99367.25;;;6.25;nan
8523;BME280;4299;42.202;24.736;2023-03-25T00:56:37;99371.91;;;6.18;nan
8523;BME280;4299;42.202;24.736;2023-03-25T00:59:05;99370.19;;;6.17;nan
8523;BME280;4299;42.202;24.736;2023-03-25T01:01:31;99367.84;;;6.10;nan
8523;BME280;4299;42.202;24.736;2023-03-25T01:03:58;99362.47;;;6.13;nan
8523;BME280;4299;42.202;24.736;2023-03-25T01:06:28;99364.06;;;6.17;nan
8523;BME280;4299;42.202;24.736;2023-03-25T01:08:57;99362.59;;;6.10;nan
8523;BME280;4299;42.202;24.736;2023-03-25T01:11:26;99361.25;;;6.00;nan
8523;BME280;4299;42.202;24.736;2023-03-25T01:13:54;99366.63;;;5.97;nan
8523;BME280;4299;42.202;24.736;2023-03-25T01:16:23;99366.63;;;5.97;nan
8523;BME280;4299;42.202;24.736;2023-03-25T01:18:50;99352.69;;;5.95;nan
8523;BME280;4299;42.202;24.736;2023-03-25T01:21:17;99347.56;;;5.92;nan
8523;BME280;4299;42.202;24.736;2023-03-25T01:23:43;99342.28;;;5.92;nan
8523;BME280;4299;42.202;24.736;2023-03-25T01:26:11;99346.31;;;6.00;nan
8523;BME280;4299;42.202;24.736;2023-03-25T01:28:38;99327.84;;;6.02;nan
8523;BME280;4299;42.202;24.736;2023-03-25T01:31:06;99332.28;;;6.00;nan
8523;BME280;4299;42.202;24.736;2023-03-25T01:33:35;99336.78;;;5.98;nan
8523;BME280;4299;42.202;24.736;2023-03-25T01:36:02;99335.06;;;5.97;nan
8523;BME280;4299;42.202;24.736;2023-03-25T01:38:29;99333.47;;;5.93;nan
8523;BME280;4299;42.202;24.736;2023-03-25T01:40:56;99321.34;;;5.89;nan
8523;BME280;4299;42.202;24.736;2023-03-25T01:43:23;99324.53;;;5.97;nan
8523;BME280;4299;42.202;24.736;2023-03-25T01:45:50;99333.34;;;5.96;nan
8523;BME280;4299;42.202;24.736;2023-03-25T01:48:21;99335.50;;;5.84;nan
8523;BME280;4299;42.202;24.736;2023-03-25T01:50:52;99318.63;;;5.68;nan
8523;BME280;4299;42.202;24.736;2023-03-25T01:53:19;99314.03;;;5.73;nan
8523;BME280;4299;42.202;24.736;2023-03-25T01:55:47;99307.63;;;5.80;nan
8523;BME280;4299;42.202;24.736;2023-03-25T01:58:18;99313.69;;;5.82;nan
8523;BME280;4299;42.202;24.736;2023-03-25T02:00:47;99306.56;;;5.84;nan
8523;BME280;4299;42.202;24.736;2023-03-25T02:03:16;99297.00;;;5.83;nan
8523;BME280;4299;42.202;24.736;2023-03-25T02:05:51;99300.78;;;5.76;nan
8523;BME280;4299;42.202;24.736;2023-03-25T02:08:20;99308.09;;;5.68;nan
8523;BME280;4299;42.202;24.736;2023-03-25T02:10:48;99316.38;;;5.36;nan
8523;BME280;4299;42.202;24.736;2023-03-25T02:13:16;99311.38;;;5.05;nan
8523;BME280;4299;42.202;24.736;2023-03-25T02:16:01;99314.63;;;4.88;nan
8523;BME280;4299;42.202;24.736;2023-03-25T02:18:40;99313.69;;;4.66;nan
8523;BME280;4299;42.202;24.736;2023-03-25T02:21:41;99300.38;;;4.70;nan
8523;BME280;4299;42.202;24.736;2023-03-25T02:24:31;99303.06;;;4.69;nan
8523;BME280;4299;42.202;24.736;2023-03-25T02:27:20;99296.47;;;4.57;nan
8523;BME280;4299;42.202;24.736;2023-03-25T02:33:11;99300.50;;;4.43;nan
8523;BME280;4299;42.202;24.736;2023-03-25T02:35:53;99283.78;;;4.70;nan
8523;BME280;4299;42.202;24.736;2023-03-25T02:38:34;99291.91;;;4.87;nan
8523;BME280;4299;42.202;24.736;2023-03-25T02:41:08;99286.09;;;5.02;nan
8523;BME280;4299;42.202;24.736;2023-03-25T02:43:40;99291.94;;;5.11;nan
8523;BME280;4299;42.202;24.736;2023-03-25T02:46:13;99296.16;;;5.15;nan
8523;BME280;4299;42.202;24.736;2023-03-25T02:48:49;99287.41;;;5.14;nan
8523;BME280;4299;42.202;24.736;2023-03-25T02:51:21;99284.06;;;5.11;nan
8523;BME280;4299;42.202;24.736;2023-03-25T02:53:52;99294.44;;;5.14;nan
8523;BME280;4299;42.202;24.736;2023-03-25T02:56:22;99278.56;;;5.17;nan
8523;BME280;4299;42.202;24.736;2023-03-25T02:58:52;99276.03;;;5.14;nan
8523;BME280;4299;42.202;24.736;2023-03-25T03:01:21;99273.31;;;5.17;nan
8523;BME280;4299;42.202;24.736;2023-03-25T03:03:51;99262.56;;;5.23;nan
8523;BME280;4299;42.202;24.736;2023-03-25T03:06:18;99257.19;;;5.26;nan
8523;BME280;4299;42.202;24.736;2023-03-25T03:09:05;99264.03;;;5.30;nan
8523;BME280;4299;42.202;24.736;2023-03-25T03:11:40;99262.47;;;5.26;nan
8523;BME280;4299;42.202;24.736;2023-03-25T03:14:26;99263.38;;;5.25;nan
8523;BME280;4299;42.202;24.736;2023-03-25T03:17:02;99273.75;;;5.04;nan
8523;BME280;4299;42.202;24.736;2023-03-25T03:19:37;99274.09;;;4.95;nan
8523;BME280;4299;42.202;24.736;2023-03-25T03:22:20;99269.09;;;4.89;nan
8523;BME280;4299;42.202;24.736;2023-03-25T03:24:58;99272.78;;;4.84;nan
8523;BME280;4299;42.202;24.736;2023-03-25T03:27:30;99263.34;;;4.78;nan
8523;BME280;4299;42.202;24.736;2023-03-25T03:30:04;99271.47;;;4.72;nan
8523;BME280;4299;42.202;24.736;2023-03-25T03:32:37;99256.97;;;4.60;nan
8523;BME280;4299;42.202;24.736;2023-03-25T03:35:10;99246.38;;;4.63;nan
8523;BME280;4299;42.202;24.736;2023-03-25T03:37:41;99246.91;;;4.73;nan
8523;BME280;4299;42.202;24.736;2023-03-25T03:40:14;99254.38;;;4.84;nan
8523;BME280;4299;42.202;24.736;2023-03-25T03:42:44;99256.06;;;4.86;nan
8523;BME280;4299;42.202;24.736;2023-03-25T03:45:16;99253.31;;;4.89;nan
8523;BME280;4299;42.202;24.736;2023-03-25T03:47:47;99258.06;;;4.80;nan
8523;BME280;4299;42.202;24.736;2023-03-25T03:50:18;99252.16;;;4.73;nan
8523;BME280;4299;42.202;24.736;2023-03-25T03:52:49;99246.47;;;4.85;nan
8523;BME280;4299;42.202;24.736;2023-03-25T03:55:23;99245.13;;;4.97;nan
8523;BME280;4299;42.202;24.736;2023-03-25T03:57:55;99231.72;;;5.04;nan
8523;BME280;4299;42.202;24.736;2023-03-25T04:00:25;99240.53;;;5.03;nan
8523;BME280;4299;42.202;24.736;2023-03-25T04:02:58;99259.22;;;4.96;nan
8523;BME280;4299;42.202;24.736;2023-03-25T04:05:28;99251.81;;;4.82;nan
8523;BME280;4299;42.202;24.736;2023-03-25T04:08:00;99251.19;;;4.76;nan
8523;BME280;4299;42.202;24.736;2023-03-25T04:10:41;99251.81;;;4.82;nan
8523;BME280;4299;42.202;24.736;2023-03-25T04:13:12;99253.88;;;4.74;nan
8523;BME280;4299;42.202;24.736;2023-03-25T04:15:41;99241.75;;;4.70;nan
8523;BME280;4299;42.202;24.736;2023-03-25T04:18:08;99239.94;;;4.72;nan
8523;BME280;4299;42.202;24.736;2023-03-25T04:20:35;99249.69;;;4.68;nan
8523;BME280;4299;42.202;24.736;2023-03-25T04:23:03;99263.09;;;4.61;nan
8523;BME280;4299;42.202;24.736;2023-03-25T04:25:30;99262.72;;;4.47;nan
8523;BME280;4299;42.202;24.736;2023-03-25T04:27:58;99265.16;;;4.53;nan
8523;BME280;4299;42.202;24.736;2023-03-25T04:30:26;99261.22;;;4.64;nan
8523;BME280;4299;42.202;24.736;2023-03-25T04:32:53;99256.97;;;4.85;nan
8523;BME280;4299;42.202;24.736;2023-03-25T04:35:21;99265.66;;;4.87;nan
8523;BME280;4299;42.202;24.736;2023-03-25T04:37:50;99266.97;;;4.99;nan
8523;BME280;4299;42.202;24.736;2023-03-25T04:40:19;99271.31;;;5.00;nan
8523;BME280;4299;42.202;24.736;2023-03-25T04:42:46;99268.63;;;5.01;nan
8523;BME280;4299;42.202;24.736;2023-03-25T04:45:15;99263.25;;;5.04;nan
8523;BME280;4299;42.202;24.736;2023-03-25T04:47:43;99280.84;;;5.02;nan
8523;BME280;4299;42.202;24.736;2023-03-25T04:50:18;99279.00;;;5.04;nan
8523;BME280;4299;42.202;24.736;2023-03-25T04:52:45;99275.47;;;5.05;nan
8523;BME280;4299;42.202;24.736;2023-03-25T04:55:14;99282.44;;;5.06;nan
8523;BME280;4299;42.202;24.736;2023-03-25T04:57:44;99276.28;;;5.07;nan
8523;BME280;4299;42.202;24.736;2023-03-25T05:00:12;99283.81;;;5.17;nan
8523;BME280;4299;42.202;24.736;2023-03-25T05:02:43;99271.25;;;5.25;nan
8523;BME280;4299;42.202;24.736;2023-03-25T05:05:11;99269.19;;;5.33;nan
8523;BME280;4299;42.202;24.736;2023-03-25T05:07:44;99267.22;;;5.38;nan
8523;BME280;4299;42.202;24.736;2023-03-25T05:10:12;99272.25;;;5.44;nan
8523;BME280;4299;42.202;24.736;2023-03-25T05:12:39;99274.78;;;5.47;nan
8523;BME280;4299;42.202;24.736;2023-03-25T05:15:06;99265.72;;;5.54;nan
8523;BME280;4299;42.202;24.736;2023-03-25T05:17:33;99272.38;;;5.63;nan
8523;BME280;4299;42.202;24.736;2023-03-25T05:20:02;99271.22;;;5.70;nan
8523;BME280;4299;42.202;24.736;2023-03-25T05:22:30;99281.44;;;5.77;nan
8523;BME280;4299;42.202;24.736;2023-03-25T05:24:57;99268.63;;;5.92;nan
8523;BME280;4299;42.202;24.736;2023-03-25T05:27:27;99267.97;;;6.07;nan
8523;BME280;4299;42.202;24.736;2023-03-25T05:29:54;99275.94;;;6.27;nan
8523;BME280;4299;42.202;24.736;2023-03-25T05:32:22;99277.81;;;6.44;nan
8523;BME280;4299;42.202;24.736;2023-03-25T05:34:50;99272.91;;;6.56;nan
8523;BME280;4299;42.202;24.736;2023-03-25T05:37:18;99266.19;;;6.70;nan
8523;BME280;4299;42.202;24.736;2023-03-25T05:39:45;99268.25;;;6.82;nan
8523;BME280;4299;42.202;24.736;2023-03-25T05:42:12;99269.56;;;6.92;nan
8523;BME280;4299;42.202;24.736;2023-03-25T05:44:38;99266.88;;;7.12;nan
8523;BME280;4299;42.202;24.736;2023-03-25T05:47:10;99260.78;;;7.30;nan
8523;BME280;4299;42.202;24.736;2023-03-25T05:49:37;99267.03;;;7.47;nan
8523;BME280;4299;42.202;24.736;2023-03-25T05:52:06;99273.44;;;7.60;nan
8523;BME280;4299;42.202;24.736;2023-03-25T05:54:34;99267.59;;;7.72;nan
8523;BME280;4299;42.202;24.736;2023-03-25T05:57:03;99270.56;;;7.83;nan
8523;BME280;4299;42.202;24.736;2023-03-25T05:59:30;99280.53;;;7.95;nan
8523;BME280;4299;42.202;24.736;2023-03-25T06:01:57;99275.91;;;8.17;nan
8523;BME280;4299;42.202;24.736;2023-03-25T06:04:24;99280.28;;;8.36;nan
8523;BME280;4299;42.202;24.736;2023-03-25T06:06:51;99281.53;;;8.46;nan
8523;BME280;4299;42.202;24.736;2023-03-25T06:09:18;99279.06;;;8.60;nan
8523;BME280;4299;42.202;24.736;2023-03-25T06:11:46;99288.84;;;8.75;nan
8523;BME280;4299;42.202;24.736;2023-03-25T06:14:17;99295.00;;;8.91;nan
8523;BME280;4299;42.202;24.736;2023-03-25T06:16:44;99291.56;;;9.07;nan
8523;BME280;4299;42.202;24.736;2023-03-25T06:19:11;99289.81;;;9.23;nan
8523;BME280;4299;42.202;24.736;2023-03-25T06:21:38;99287.13;;;9.40;nan
8523;BME280;4299;42.202;24.736;2023-03-25T06:24:05;99289.59;;;9.59;nan
8523;BME280;4299;42.202;24.736;2023-03-25T06:26:32;99289.00;;;9.69;nan
8523;BME280;4299;42.202;24.736;2023-03-25T06:29:00;99286.09;;;9.90;nan
8523;BME280;4299;42.202;24.736;2023-03-25T06:31:28;99290.88;;;9.99;nan
8523;BME280;4299;42.202;24.736;2023-03-25T06:33:57;99282.06;;;10.14;nan
8523;BME280;4299;42.202;24.736;2023-03-25T06:36:25;99286.50;;;10.29;nan
8523;BME280;4299;42.202;24.736;2023-03-25T06:38:52;99285.50;;;10.46;nan
8523;BME280;4299;42.202;24.736;2023-03-25T06:41:19;99290.28;;;10.55;nan
8523;BME280;4299;42.202;24.736;2023-03-25T06:43:46;99282.19;;;10.72;nan
8523;BME280;4299;42.202;24.736;2023-03-25T06:46:15;99285.50;;;10.90;nan
8523;BME280;4299;42.202;24.736;2023-03-25T06:48:42;99277.06;;;10.98;nan
8523;BME280;4299;42.202;24.736;2023-03-25T06:51:08;99288.16;;;11.04;nan
8523;BME280;4299;42.202;24.736;2023-03-25T06:53:35;99285.50;;;11.18;nan
8523;BME280;4299;42.202;24.736;2023-03-25T06:56:02;99288.75;;;11.23;nan
8523;BME280;4299;42.202;24.736;2023-03-25T06:58:28;99289.50;;;11.40;nan
8523;BME280;4299;42.202;24.736;2023-03-25T07:00:59;99288.53;;;11.55;nan
8523;BME280;4299;42.202;24.736;2023-03-25T07:03:29;99303.03;;;11.63;nan
8523;BME280;4299;42.202;24.736;2023-03-25T07:05:56;99298.09;;;11.57;nan
8523;BME280;4299;42.202;24.736;2023-03-25T07:08:23;99299.72;;;11.74;nan
8523;BME280;4299;42.202;24.736;2023-03-25T07:10:49;99303.16;;;11.76;nan
8523;BME280;4299;42.202;24.736;2023-03-25T07:13:16;99296.81;;;11.91;nan
8523;BME280;4299;42.202;24.736;2023-03-25T07:15:43;99286.72;;;12.11;nan
8523;BME280;4299;42.202;24.736;2023-03-25T07:18:10;99287.44;;;12.27;nan
8523;BME280;4299;42.202;24.736;2023-03-25T07:20:38;99290.66;;;12.44;nan
8523;BME280;4299;42.202;24.736;2023-03-25T07:23:04;99294.09;;;12.59;nan
8523;BME280;4299;42.202;24.736;2023-03-25T07:25:31;99299.44;;;12.72;nan
8523;BME280;4299;42.202;24.736;2023-03-25T07:27:58;99296.91;;;12.83;nan
8523;BME280;4299;42.202;24.736;2023-03-25T07:30:24;99302.97;;;12.98;nan
8523;BME280;4299;42.202;24.736;2023-03-25T07:32:51;99304.63;;;13.13;nan
8523;BME280;4299;42.202;24.736;2023-03-25T07:35:18;99305.38;;;13.15;nan
8523;BME280;4299;42.202;24.736;2023-03-25T07:37:46;99294.41;;;13.19;nan
8523;BME280;4299;42.202;24.736;2023-03-25T07:40:13;99293.13;;;13.25;nan
8523;BME280;4299;42.202;24.736;2023-03-25T07:42:40;99291.84;;;13.18;nan
8523;BME280;4299;42.202;24.736;2023-03-25T07:45:07;99293.09;;;13.38;nan
8523;BME280;4299;42.202;24.736;2023-03-25T07:47:34;99287.53;;;13.53;nan
8523;BME280;4299;42.202;24.736;2023-03-25T07:50:00;99284.22;;;13.62;nan
8523;BME280;4299;42.202;24.736;2023-03-25T07:52:27;99282.59;;;13.73;nan
8523;BME280;4299;42.202;24.736;2023-03-25T07:54:55;99284.59;;;13.82;nan
8523;BME280;4299;42.202;24.736;2023-03-25T07:57:24;99273.09;;;14.05;nan
8523;BME280;4299;42.202;24.736;2023-03-25T07:59:51;99275.59;;;14.19;nan
8523;BME280;4299;42.202;24.736;2023-03-25T08:02:18;99270.19;;;14.32;nan
8523;BME280;4299;42.202;24.736;2023-03-25T08:04:44;99271.88;;;14.46;nan
8523;BME280;4299;42.202;24.736;2023-03-25T08:07:11;99261.44;;;14.43;nan
8523;BME280;4299;42.202;24.736;2023-03-25T08:09:40;99264.66;;;14.59;nan
8523;BME280;4299;42.202;24.736;2023-03-25T08:12:08;99271.47;;;14.74;nan
8523;BME280;4299;42.202;24.736;2023-03-25T08:14:35;99255.59;;;14.84;nan
8523;BME280;4299;42.202;24.736;2023-03-25T08:17:03;99259.16;;;15.06;nan
8523;BME280;4299;42.202;24.736;2023-03-25T08:19:30;99267.88;;;15.19;nan
8523;BME280;4299;42.202;24.736;2023-03-25T08:21:57;99251.41;;;15.37;nan
8523;BME280;4299;42.202;24.736;2023-03-25T08:24:24;99257.72;;;15.36;nan
8523;BME280;4299;42.202;24.736;2023-03-25T08:26:51;99257.72;;;15.36;nan
8523;BME280;4299;42.202;24.736;2023-03-25T08:29:19;99250.44;;;15.38;nan
8523;BME280;4299;42.202;24.736;2023-03-25T08:31:46;99260.63;;;15.66;nan
8523;BME280;4299;42.202;24.736;2023-03-25T08:34:17;99257.69;;;15.80;nan
8523;BME280;4299;42.202;24.736;2023-03-25T08:36:44;99243.38;;;15.81;nan
8523;BME280;4299;42.202;24.736;2023-03-25T08:39:11;99248.94;;;15.89;nan
8523;BME280;4299;42.202;24.736;2023-03-25T08:41:42;99248.66;;;16.04;nan
8523;BME280;4299;42.202;24.736;2023-03-25T08:44:09;99246.94;;;16.14;nan
8523;BME280;4299;42.202;24.736;2023-03-25T08:46:37;99244.94;;;16.27;nan
8523;BME280;4299;42.202;24.736;2023-03-25T08:49:04;99239.53;;;16.38;nan
8523;BME280;4299;42.202;24.736;2023-03-25T08:51:31;99232.66;;;16.45;nan
8523;BME280;4299;42.202;24.736;2023-03-25T08:53:58;99236.84;;;16.38;nan
8523;BME280;4299;42.202;24.736;2023-03-25T08:56:25;99225.63;;;16.44;nan
8523;BME280;4299;42.202;24.736;2023-03-25T08:58:51;99221.97;;;16.45;nan
8523;BME280;4299;42.202;24.736;2023-03-25T09:01:18;99212.44;;;16.52;nan
8523;BME280;4299;42.202;24.736;2023-03-25T09:03:47;99213.63;;;16.59;nan
8523;BME280;4299;42.202;24.736;2023-03-25T09:06:14;99205.56;;;16.70;nan
8523;BME280;4299;42.202;24.736;2023-03-25T09:08:41;99195.72;;;16.71;nan
8523;BME280;4299;42.202;24.736;2023-03-25T09:11:07;99193.81;;;16.83;nan
8523;BME280;4299;42.202;24.736;2023-03-25T09:13:34;99188.81;;;16.99;nan
8523;BME280;4299;42.202;24.736;2023-03-25T09:16:00;99187.44;;;17.04;nan
8523;BME280;4299;42.202;24.736;2023-03-25T09:18:27;99180.41;;;17.13;nan
8523;BME280;4299;42.202;24.736;2023-03-25T09:20:58;99168.94;;;17.41;nan
8523;BME280;4299;42.202;24.736;2023-03-25T09:23:26;99168.69;;;17.54;nan
8523;BME280;4299;42.202;24.736;2023-03-25T09:25:53;99169.88;;;17.61;nan
8523;BME280;4299;42.202;24.736;2023-03-25T09:28:21;99163.41;;;17.64;nan
8523;BME280;4299;42.202;24.736;2023-03-25T09:30:47;99160.72;;;17.64;nan
8523;BME280;4299;42.202;24.736;2023-03-25T09:33:14;99174.53;;;17.69;nan
8523;BME280;4299;42.202;24.736;2023-03-25T09:35:41;99167.09;;;17.82;nan
8523;BME280;4299;42.202;24.736;2023-03-25T09:38:09;99158.66;;;17.96;nan
8523;BME280;4299;42.202;24.736;2023-03-25T09:40:35;99157.25;;;18.11;nan
8523;BME280;4299;42.202;24.736;2023-03-25T09:43:19;99149.56;;;18.36;nan
8523;BME280;4299;42.202;24.736;2023-03-25T09:45:49;99147.84;;;18.63;nan
8523;BME280;4299;42.202;24.736;2023-03-25T09:48:22;99149.44;;;18.93;nan
8523;BME280;4299;42.202;24.736;2023-03-25T09:50:49;99136.31;;;19.27;nan
8523;BME280;4299;42.202;24.736;2023-03-25T09:53:22;99135.19;;;19.57;nan
8523;BME280;4299;42.202;24.736;2023-03-25T09:55:50;99128.41;;;19.89;nan
8523;BME280;4299;42.202;24.736;2023-03-25T09:58:22;99120.47;;;20.40;nan
8523;BME280;4299;42.202;24.736;2023-03-25T10:00:51;99103.25;;;20.85;nan
8523;BME280;4299;42.202;24.736;2023-03-25T10:03:22;99094.84;;;21.22;nan
8523;BME280;4299;42.202;24.736;2023-03-25T10:05:57;99093.72;;;21.41;nan
8523;BME280;4299;42.202;24.736;2023-03-25T10:08:30;99080.63;;;21.46;nan
8523;BME280;4299;42.202;24.736;2023-03-25T10:10:59;99070.84;;;21.53;nan
8523;BME280;4299;42.202;24.736;2023-03-25T10:13:31;99069.50;;;21.65;nan
8523;BME280;4299;42.202;24.736;2023-03-25T10:16:04;99056.19;;;21.63;nan
8523;BME280;4299;42.202;24.736;2023-03-25T10:18:36;99051.63;;;21.64;nan
8523;BME280;4299;42.202;24.736;2023-03-25T10:21:06;99048.94;;;21.56;nan
8523;BME280;4299;42.202;24.736;2023-03-25T10:23:37;99047.56;;;21.44;nan
8523;BME280;4299;42.202;24.736;2023-03-25T10:26:08;99043.34;;;21.33;nan
8523;BME280;4299;42.202;24.736;2023-03-25T10:28:38;99040.09;;;21.21;nan
8523;BME280;4299;42.202;24.736;2023-03-25T10:31:08;99035.34;;;21.15;nan
8523;BME280;4299;42.202;24.736;2023-03-25T10:33:40;99027.25;;;21.15;nan
8523;BME280;4299;42.202;24.736;2023-03-25T10:36:10;99023.22;;;21.11;nan
8523;BME280;4299;42.202;24.736;2023-03-25T10:38:42;99014.75;;;21.06;nan
8523;BME280;4299;42.202;24.736;2023-03-25T10:41:10;99014.44;;;21.09;nan
8523;BME280;4299;42.202;24.736;2023-03-25T10:43:40;98993.19;;;21.06;nan
8523;BME280;4299;42.202;24.736;2023-03-25T10:46:11;98998.09;;;21.03;nan
8523;BME280;4299;42.202;24.736;2023-03-25T10:48:40;98992.16;;;20.99;nan
8523;BME280;4299;42.202;24.736;2023-03-25T10:51:08;98994.56;;;21.10;nan
8523;BME280;4299;42.202;24.736;2023-03-25T10:53:35;98995.63;;;21.17;nan
8523;BME280;4299;42.202;24.736;2023-03-25T10:56:03;98994.59;;;21.26;nan
8523;BME280;4299;42.202;24.736;2023-03-25T10:58:32;98989.56;;;21.23;nan
8523;BME280;4299;42.202;24.736;2023-03-25T11:00:59;98979.78;;;21.22;nan
8523;BME280;4299;42.202;24.736;2023-03-25T11:03:28;98972.03;;;21.19;nan
8523;BME280;4299;42.202;24.736;2023-03-25T11:05:56;98971.38;;;21.25;nan
8523;BME280;4299;42.202;24.736;2023-03-25T11:08:22;98960.41;;;21.35;nan
8523;BME280;4299;42.202;24.736;2023-03-25T11:10:50;98962.28;;;21.43;nan
8523;BME280;4299;42.202;24.736;2023-03-25T11:13:23;98958.09;;;21.40;nan
8523;BME280;4299;42.202;24.736;2023-03-25T11:15:50;98962.28;;;21.43;nan
8523;BME280;4299;42.202;24.736;2023-03-25T11:18:19;98954.19;;;21.43;nan
8523;BME280;4299;42.202;24.736;2023-03-25T11:20:47;98951.50;;;21.43;nan
8523;BME280;4299;42.202;24.736;2023-03-25T11:23:15;98947.81;;;21.60;nan
8523;BME280;4299;42.202;24.736;2023-03-25T11:25:46;98931.25;;;21.63;nan
8523;BME280;4299;42.202;24.736;2023-03-25T11:28:15;98936.00;;;21.69;nan
8523;BME280;4299;42.202;24.736;2023-03-25T11:33:29;98925.16;;;21.77;nan
8523;BME280;4299;42.202;24.736;2023-03-25T11:35:56;98922.31;;;21.70;nan
8523;BME280;4299;42.202;24.736;2023-03-25T11:38:35;98912.72;;;21.68;nan
8523;BME280;4299;42.202;24.736;2023-03-25T11:41:02;98913.38;;;21.78;nan
8523;BME280;4299;42.202;24.736;2023-03-25T11:43:31;98908.31;;;21.91;nan
8523;BME280;4299;42.202;24.736;2023-03-25T11:46:05;98897.34;;;22.01;nan
8523;BME280;4299;42.202;24.736;2023-03-25T11:48:35;98895.47;;;22.09;nan
8523;BME280;4299;42.202;24.736;2023-03-25T11:51:02;98880.94;;;22.10;nan
8523;BME280;4299;42.202;24.736;2023-03-25T11:53:32;98890.06;;;22.09;nan
8523;BME280;4299;42.202;24.736;2023-03-25T11:55:59;98873.53;;;22.12;nan
8523;BME280;4299;42.202;24.736;2023-03-25T11:58:29;98874.50;;;22.20;nan
8523;BME280;4299;42.202;24.736;2023-03-25T12:00:59;98868.75;;;22.23;nan
8523;BME280;4299;42.202;24.736;2023-03-25T12:03:26;98867.38;;;22.35;nan
8523;BME280;4299;42.202;24.736;2023-03-25T12:05:59;98861.91;;;22.43;nan
8523;BME280;4299;42.202;24.736;2023-03-25T12:08:27;98858.66;;;22.56;nan
8523;BME280;4299;42.202;24.736;2023-03-25T12:10:56;98854.69;;;22.66;nan
8523;BME280;4299;42.202;24.736;2023-03-25T12:13:28;98848.25;;;22.75;nan
8523;BME280;4299;42.202;24.736;2023-03-25T12:16:01;98845.19;;;22.78;nan
8523;BME280;4299;42.202;24.736;2023-03-25T12:18:42;98835.03;;;22.80;nan
8523;BME280;4299;42.202;24.736;2023-03-25T12:21:15;98832.66;;;22.85;nan
8523;BME280;4299;42.202;24.736;2023-03-25T12:23:46;98826.50;;;22.92;nan
8523;BME280;4299;42.202;24.736;2023-03-25T12:26:17;98825.06;;;23.04;nan
8523;BME280;4299;42.202;24.736;2023-03-25T12:28:51;98831.41;;;23.11;nan
8523;BME280;4299;42.202;24.736;2023-03-25T12:31:30;98828.66;;;23.19;nan
8523;BME280;4299;42.202;24.736;2023-03-25T12:34:03;98818.44;;;23.29;nan
8523;BME280;4299;42.202;24.736;2023-03-25T12:36:36;98815.53;;;23.30;nan
8523;BME280;4299;42.202;24.736;2023-03-25T12:39:16;98811.34;;;23.28;nan
8523;BME280;4299;42.202;24.736;2023-03-25T12:41:48;98810.75;;;23.18;nan
8523;BME280;4299;42.202;24.736;2023-03-25T12:44:22;98806.06;;;23.12;nan
8523;BME280;4299;42.202;24.736;2023-03-25T12:47:02;98801.59;;;23.19;nan
8523;BME280;4299;42.202;24.736;2023-03-25T12:49:39;98802.31;;;23.36;nan
8523;BME280;4299;42.202;24.736;2023-03-25T12:52:10;98784.50;;;23.41;nan
8523;BME280;4299;42.202;24.736;2023-03-25T12:54:44;98781.38;;;23.52;nan
8523;BME280;4299;42.202;24.736;2023-03-25T12:57:18;98779.50;;;23.67;nan
8523;BME280;4299;42.202;24.736;2023-03-25T12:59:48;98765.22;;;23.88;nan
8523;BME280;4299;42.202;24.736;2023-03-25T13:02:28;98769.53;;;24.19;nan
8523;BME280;4299;42.202;24.736;2023-03-25T13:05:02;98763.88;;;24.28;nan
8523;BME280;4299;42.202;24.736;2023-03-25T13:07:33;98763.03;;;24.49;nan
8523;BME280;4299;42.202;24.736;2023-03-25T13:10:02;98758.22;;;24.66;nan
8523;BME280;4299;42.202;24.736;2023-03-25T13:12:31;98750.75;;;24.68;nan
8523;BME280;4299;42.202;24.736;2023-03-25T13:15:01;98744.88;;;24.64;nan
8523;BME280;4299;42.202;24.736;2023-03-25T13:17:32;98744.44;;;24.61;nan
8523;BME280;4299;42.202;24.736;2023-03-25T13:20:00;98742.81;;;24.66;nan
8523;BME280;4299;42.202;24.736;2023-03-25T13:22:32;98746.59;;;24.72;nan
8523;BME280;4299;42.202;24.736;2023-03-25T13:25:00;98737.44;;;24.73;nan
8523;BME280;4299;42.202;24.736;2023-03-25T13:27:29;98738.66;;;24.70;nan
8523;BME280;4299;42.202;24.736;2023-03-25T13:29:58;98735.63;;;24.59;nan
8523;BME280;4299;42.202;24.736;2023-03-25T13:32:27;98733.44;;;24.48;nan
8523;BME280;4299;42.202;24.736;2023-03-25T13:34:55;98732.09;;;24.37;nan
8523;BME280;4299;42.202;24.736;2023-03-25T13:37:23;98727.09;;;24.40;nan
8523;BME280;4299;42.202;24.736;2023-03-25T13:39:54;98736.28;;;24.39;nan
8523;BME280;4299;42.202;24.736;2023-03-25T13:42:24;98721.69;;;24.40;nan
8523;BME280;4299;42.202;24.736;2023-03-25T13:44:52;98721.84;;;24.54;nan
8523;BME280;4299;42.202;24.736;2023-03-25T13:47:22;98716.91;;;24.64;nan
8523;BME280;4299;42.202;24.736;2023-03-25T13:49:51;98720.41;;;24.79;nan
8523;BME280;4299;42.202;24.736;2023-03-25T13:52:18;98706.84;;;25.00;nan
8523;BME280;4299;42.202;24.736;2023-03-25T13:54:45;98713.00;;;25.15;nan
8523;BME280;4299;42.202;24.736;2023-03-25T13:57:19;98714.66;;;25.44;nan
8523;BME280;4299;42.202;24.736;2023-03-25T14:08:28;98685.81;;;25.37;nan